ENGM/OSL METAR and TAF weather

Enter ICAO airport designator
Station Type Date Time Source
ENGM METAR 2021/03/01 22:50 UTC NOAA

ENGM 012250Z 26004KT 220V320 CAVOK 06/M02 Q1025


Station Type Date Time Source
ENGM Decoded METAR 2021/03/01 22:50 UTC NOAA

Oslo / Gardermoen, Norway (ENGM) 60-12N 011-05E 204M
Mar 01, 2021 - 05:50 PM EST / 2021.03.01 2250 UTC
Wind: from the W (260 degrees) at 5 MPH (4 KT) (direction variable):0
Visibility: greater than 7 mile(s):0
Temperature: 42 F (6 C)
Dew Point: 28 F (-2 C)
Relative Humidity: 56%
Pressure (altimeter): 30.27 in. Hg (1025 hPa)
ob: ENGM 012250Z 26004KT 220V320 CAVOK 06/M02 Q1025
cycle: 23

Station Type Date Time Source
ENGM TAF 2021/03/01 18:57 UTC NOAA

TAF ENGM 011700Z 0118/0218 18010KT CAVOK
BECMG 0118/0120 VRB03KT PROB40 0212/0218 18010KT

Example: see airport list